Aérodrome :
LOGIN :

S'inscrire | Disclaimer

   EN    FR    IT 

 










Légende :    VFR   VFR Marginal   IFR   IFR Intensif   IFR Très Intensif
Visi : 
Plafond : 
>= 8 km
>= 3000ft
5 à 8 km
1000 à 3000 ft
1500m à 5 km
500 à 1000 ft
800 à 1500m
200 à 500 ft
< 800m
< 200 ft
Symboles :   Orages  Brouillard  Fortes neiges  Fortes précipitations  Vent > 20 kt
SIGMETs :   Divers  Orages  Givrage  Turbulence  Onde Orograph.  Cendres Volcan.






- Altitude de l'aérodrome : 276 ft


LYVR - Vršac International

DERNIER METAR :
  • 270730Z VRB01KT 3000 -RA SCT013 BKN023 06/05 Q1018 NOSIG

METARs EXPIRÉS :
  • 270700Z 01002KT 4000 -RA BKN030 06/06 Q1017 NOSIG
  • 270630Z 02003KT 5000 -RA BKN030 06/06 Q1017 NOSIG
  • 270600Z 06002KT 7000 -RA BKN033 06/06 Q1017 RERA NOSIG
  • 270530Z 08002KT 9999 -RA SCT013 BKN040 06/05 Q1017 NOSIG
  • 270500Z AUTO VRB01KT 9999 -RA OVC047/// 06/05 Q1017

TAF TAF LYVR
Valide du 27 à 06h jusqu'au 28 à 06h UTC


270500Z 2706/2806 04005KT 9999 BKN030 TX05/2713Z TN02/2806Z
BECMG 2706/2708 3000 RA BR BKN010 BKN027
BECMG 2714/2716 6000 NSW SCT010 BKN030
BECMG 2716/2718 1500 BR BKN005
TEMPO 2802/2806 0600 FG BKN003



MET'MAP, la Météo Aéronautique d'un coup d'oeil ! - Copyright ORBIFLY Décembre 2007 - Disclaimer

ORBIFLY MET'MAP TEAM :

Programmation & Développement : Alexandra Zaïnal
Sur une idée originale de : Baudouin d'Aumeries
Assistance à la programmation : Marc-Olivier Méhu
Soutien technique & logistique : Manuel Goepfert

Contact : metmap@orbifly.com




SOURCES & CREDITS :

   NOAA